Terminal Aerodrome Forecast
Issued by NWS St Louis, MO

Home | Current Version | Previous Version | Text Only | Print | Product List | Glossary On
Versions: 1 2 3 4 5 6 7 8 9 10 11 12 13 14 15 16 17 18 19 20 21 22 23 24
000
FTUS43 KLSX 260640 AAA
TAFCOU
TAF AMD
KCOU 260640Z 2607/2706 25008KT 5SM BR VCSH OVC007
      TEMPO 2607/2609 2SM BR OVC004
     FM260900 27007KT 3SM BR OVC004
     FM261500 26008KT P6SM OVC010
     FM262100 26008KT P6SM BKN020
     FM270000 VRB04KT P6SM BKN035=

USA.gov is the U.S. government's official web portal to all federal, state and local government web resources and services.